sensor_id;sensor_type;location;lat;lon;timestamp;temperature;humidity
23089;DHT22;11713;48.506;8.966;2022-12-29T00:00:10;6.90;99.90
23089;DHT22;11713;48.506;8.966;2022-12-29T00:02:40;6.80;99.90
23089;DHT22;11713;48.506;8.966;2022-12-29T00:05:06;6.80;99.90
23089;DHT22;11713;48.506;8.966;2022-12-29T00:07:32;6.70;99.90
23089;DHT22;11713;48.506;8.966;2022-12-29T00:09:58;6.80;99.90
23089;DHT22;11713;48.506;8.966;2022-12-29T00:12:24;6.80;99.90
23089;DHT22;11713;48.506;8.966;2022-12-29T00:15:10;6.90;99.90
23089;DHT22;11713;48.506;8.966;2022-12-29T00:17:55;6.80;99.90
23089;DHT22;11713;48.506;8.966;2022-12-29T00:20:21;6.80;99.90
23089;DHT22;11713;48.506;8.966;2022-12-29T00:23:08;6.80;99.90
23089;DHT22;11713;48.506;8.966;2022-12-29T00:25:52;6.70;99.90
23089;DHT22;11713;48.506;8.966;2022-12-29T00:28:38;6.60;99.90
23089;DHT22;11713;48.506;8.966;2022-12-29T00:31:23;6.60;99.90
23089;DHT22;11713;48.506;8.966;2022-12-29T00:34:10;6.60;99.90
23089;DHT22;11713;48.506;8.966;2022-12-29T00:36:56;6.70;99.90
23089;DHT22;11713;48.506;8.966;2022-12-29T00:39:22;6.90;99.90
23089;DHT22;11713;48.506;8.966;2022-12-29T00:42:08;7.10;99.90
23089;DHT22;11713;48.506;8.966;2022-12-29T00:45:03;7.30;99.90
23089;DHT22;11713;48.506;8.966;2022-12-29T00:47:29;7.60;99.90
23089;DHT22;11713;48.506;8.966;2022-12-29T00:49:55;7.70;99.90
23089;DHT22;11713;48.506;8.966;2022-12-29T00:52:21;7.80;99.90
23089;DHT22;11713;48.506;8.966;2022-12-29T00:54:47;8.00;99.90
23089;DHT22;11713;48.506;8.966;2022-12-29T00:57:13;8.20;99.90
23089;DHT22;11713;48.506;8.966;2022-12-29T00:59:40;8.40;99.90
23089;DHT22;11713;48.506;8.966;2022-12-29T01:02:07;8.50;99.90
23089;DHT22;11713;48.506;8.966;2022-12-29T01:04:33;8.50;99.90
23089;DHT22;11713;48.506;8.966;2022-12-29T01:06:59;8.60;99.90
23089;DHT22;11713;48.506;8.966;2022-12-29T01:09:25;8.70;99.90
23089;DHT22;11713;48.506;8.966;2022-12-29T01:12:10;8.70;99.90
23089;DHT22;11713;48.506;8.966;2022-12-29T01:14:37;8.70;99.90
23089;DHT22;11713;48.506;8.966;2022-12-29T01:17:03;8.80;99.90
23089;DHT22;11713;48.506;8.966;2022-12-29T01:19:30;8.80;99.90
23089;DHT22;11713;48.506;8.966;2022-12-29T01:21:55;8.80;99.90
23089;DHT22;11713;48.506;8.966;2022-12-29T01:24:22;8.90;99.90
23089;DHT22;11713;48.506;8.966;2022-12-29T01:26:48;8.90;99.90
23089;DHT22;11713;48.506;8.966;2022-12-29T01:29:16;8.90;99.90
23089;DHT22;11713;48.506;8.966;2022-12-29T01:31:44;8.90;99.90
23089;DHT22;11713;48.506;8.966;2022-12-29T01:34:10;8.90;99.90
23089;DHT22;11713;48.506;8.966;2022-12-29T01:36:37;8.90;99.90
23089;DHT22;11713;48.506;8.966;2022-12-29T01:39:03;8.90;99.90
23089;DHT22;11713;48.506;8.966;2022-12-29T01:41:29;8.90;99.90
23089;DHT22;11713;48.506;8.966;2022-12-29T01:43:57;8.90;99.90
23089;DHT22;11713;48.506;8.966;2022-12-29T01:46:34;9.00;99.90
23089;DHT22;11713;48.506;8.966;2022-12-29T01:49:04;9.00;99.90
23089;DHT22;11713;48.506;8.966;2022-12-29T01:51:33;9.00;99.90
23089;DHT22;11713;48.506;8.966;2022-12-29T01:54:03;9.20;99.90
23089;DHT22;11713;48.506;8.966;2022-12-29T01:56:30;9.20;99.90
23089;DHT22;11713;48.506;8.966;2022-12-29T01:59:01;9.20;99.90
23089;DHT22;11713;48.506;8.966;2022-12-29T02:01:28;9.30;99.90
23089;DHT22;11713;48.506;8.966;2022-12-29T02:03:54;9.30;99.90
23089;DHT22;11713;48.506;8.966;2022-12-29T02:06:37;9.30;99.90
23089;DHT22;11713;48.506;8.966;2022-12-29T02:09:03;9.30;99.90
23089;DHT22;11713;48.506;8.966;2022-12-29T02:11:29;9.40;99.90
23089;DHT22;11713;48.506;8.966;2022-12-29T02:13:56;9.40;99.90
23089;DHT22;11713;48.506;8.966;2022-12-29T02:16:53;9.30;99.90
23089;DHT22;11713;48.506;8.966;2022-12-29T02:19:39;9.20;99.90
23089;DHT22;11713;48.506;8.966;2022-12-29T02:25:14;9.30;99.90
23089;DHT22;11713;48.506;8.966;2022-12-29T02:41:40;9.40;99.90
23089;DHT22;11713;48.506;8.966;2022-12-29T02:47:14;9.40;99.90
23089;DHT22;11713;48.506;8.966;2022-12-29T02:50:14;9.40;99.90
23089;DHT22;11713;48.506;8.966;2022-12-29T02:52:50;9.40;99.90
23089;DHT22;11713;48.506;8.966;2022-12-29T02:55:18;9.40;99.90
23089;DHT22;11713;48.506;8.966;2022-12-29T02:57:43;9.40;99.90
23089;DHT22;11713;48.506;8.966;2022-12-29T03:00:14;9.40;99.90
23089;DHT22;11713;48.506;8.966;2022-12-29T03:08:14;9.60;99.90
23089;DHT22;11713;48.506;8.966;2022-12-29T03:16:24;9.50;99.90
23089;DHT22;11713;48.506;8.966;2022-12-29T03:19:07;9.40;99.90
23089;DHT22;11713;48.506;8.966;2022-12-29T03:24:47;9.50;99.90
23089;DHT22;11713;48.506;8.966;2022-12-29T03:27:18;9.50;99.90
23089;DHT22;11713;48.506;8.966;2022-12-29T03:29:58;9.50;99.90
23089;DHT22;11713;48.506;8.966;2022-12-29T03:32:32;9.50;99.90
23089;DHT22;11713;48.506;8.966;2022-12-29T03:34:59;9.60;99.90
23089;DHT22;11713;48.506;8.966;2022-12-29T03:37:30;9.50;99.90
23089;DHT22;11713;48.506;8.966;2022-12-29T03:39:58;9.50;99.90
23089;DHT22;11713;48.506;8.966;2022-12-29T03:42:28;9.50;99.90
23089;DHT22;11713;48.506;8.966;2022-12-29T03:44:56;9.50;99.90
23089;DHT22;11713;48.506;8.966;2022-12-29T03:47:23;9.50;99.90
23089;DHT22;11713;48.506;8.966;2022-12-29T03:49:50;9.50;99.90
23089;DHT22;11713;48.506;8.966;2022-12-29T03:52:16;9.40;99.90
23089;DHT22;11713;48.506;8.966;2022-12-29T03:54:44;9.40;99.90
23089;DHT22;11713;48.506;8.966;2022-12-29T03:57:11;9.40;99.90
23089;DHT22;11713;48.506;8.966;2022-12-29T03:59:49;9.40;99.90
23089;DHT22;11713;48.506;8.966;2022-12-29T04:02:15;9.50;99.90
23089;DHT22;11713;48.506;8.966;2022-12-29T04:04:41;9.40;99.90
23089;DHT22;11713;48.506;8.966;2022-12-29T04:07:07;9.30;99.90
23089;DHT22;11713;48.506;8.966;2022-12-29T04:09:33;9.30;99.90
23089;DHT22;11713;48.506;8.966;2022-12-29T04:11:59;9.20;99.90
23089;DHT22;11713;48.506;8.966;2022-12-29T04:14:26;9.10;99.90
23089;DHT22;11713;48.506;8.966;2022-12-29T04:16:52;9.10;99.90
23089;DHT22;11713;48.506;8.966;2022-12-29T04:19:18;9.10;99.90
23089;DHT22;11713;48.506;8.966;2022-12-29T04:21:46;9.10;99.90
23089;DHT22;11713;48.506;8.966;2022-12-29T04:24:12;9.10;99.90
23089;DHT22;11713;48.506;8.966;2022-12-29T04:26:40;9.00;99.90
23089;DHT22;11713;48.506;8.966;2022-12-29T04:29:30;9.00;99.90
23089;DHT22;11713;48.506;8.966;2022-12-29T04:32:31;9.10;99.90
23089;DHT22;11713;48.506;8.966;2022-12-29T04:34:57;9.00;99.90
23089;DHT22;11713;48.506;8.966;2022-12-29T04:37:23;9.00;99.90
23089;DHT22;11713;48.506;8.966;2022-12-29T04:39:49;8.90;99.90
23089;DHT22;11713;48.506;8.966;2022-12-29T04:42:15;8.80;99.90
23089;DHT22;11713;48.506;8.966;2022-12-29T04:44:43;8.70;99.90
23089;DHT22;11713;48.506;8.966;2022-12-29T04:47:34;8.60;99.90
23089;DHT22;11713;48.506;8.966;2022-12-29T04:50:15;8.60;99.90
23089;DHT22;11713;48.506;8.966;2022-12-29T04:53:03;8.70;99.90
23089;DHT22;11713;48.506;8.966;2022-12-29T04:55:29;8.80;99.90
23089;DHT22;11713;48.506;8.966;2022-12-29T04:57:55;8.90;99.90
23089;DHT22;11713;48.506;8.966;2022-12-29T05:00:21;8.90;99.90
23089;DHT22;11713;48.506;8.966;2022-12-29T05:02:47;8.80;99.90
23089;DHT22;11713;48.506;8.966;2022-12-29T05:05:14;8.80;99.90
23089;DHT22;11713;48.506;8.966;2022-12-29T05:07:42;8.70;99.90
23089;DHT22;11713;48.506;8.966;2022-12-29T05:10:09;8.70;99.90
23089;DHT22;11713;48.506;8.966;2022-12-29T05:12:36;8.60;99.90
23089;DHT22;11713;48.506;8.966;2022-12-29T05:15:04;8.50;99.90
23089;DHT22;11713;48.506;8.966;2022-12-29T05:17:30;8.50;99.90
23089;DHT22;11713;48.506;8.966;2022-12-29T05:19:56;8.50;99.90
23089;DHT22;11713;48.506;8.966;2022-12-29T05:22:22;8.40;99.90
23089;DHT22;11713;48.506;8.966;2022-12-29T05:24:48;8.50;99.90
23089;DHT22;11713;48.506;8.966;2022-12-29T05:27:17;8.50;99.90
23089;DHT22;11713;48.506;8.966;2022-12-29T05:30:03;8.50;99.90
23089;DHT22;11713;48.506;8.966;2022-12-29T05:32:29;8.50;99.90
23089;DHT22;11713;48.506;8.966;2022-12-29T05:34:56;8.40;99.90
23089;DHT22;11713;48.506;8.966;2022-12-29T05:37:23;8.50;99.90
23089;DHT22;11713;48.506;8.966;2022-12-29T05:39:49;8.40;99.90
23089;DHT22;11713;48.506;8.966;2022-12-29T05:42:14;8.40;99.90
23089;DHT22;11713;48.506;8.966;2022-12-29T05:44:51;8.40;99.90
23089;DHT22;11713;48.506;8.966;2022-12-29T05:47:38;8.40;99.90
23089;DHT22;11713;48.506;8.966;2022-12-29T05:50:28;8.50;99.90
23089;DHT22;11713;48.506;8.966;2022-12-29T05:53:11;8.70;99.90
23089;DHT22;11713;48.506;8.966;2022-12-29T05:55:38;8.80;99.90
23089;DHT22;11713;48.506;8.966;2022-12-29T05:58:04;8.80;99.90
23089;DHT22;11713;48.506;8.966;2022-12-29T06:00:30;8.80;99.90
23089;DHT22;11713;48.506;8.966;2022-12-29T06:02:57;8.90;99.90
23089;DHT22;11713;48.506;8.966;2022-12-29T06:05:23;8.90;99.90
23089;DHT22;11713;48.506;8.966;2022-12-29T06:07:49;8.90;99.90
23089;DHT22;11713;48.506;8.966;2022-12-29T06:10:16;9.00;99.90
23089;DHT22;11713;48.506;8.966;2022-12-29T06:12:50;9.00;99.90
23089;DHT22;11713;48.506;8.966;2022-12-29T06:15:16;9.00;99.90
23089;DHT22;11713;48.506;8.966;2022-12-29T06:17:43;9.00;99.90
23089;DHT22;11713;48.506;8.966;2022-12-29T06:20:10;9.10;99.90
23089;DHT22;11713;48.506;8.966;2022-12-29T06:22:39;9.10;99.90
23089;DHT22;11713;48.506;8.966;2022-12-29T06:25:05;9.20;99.90
23089;DHT22;11713;48.506;8.966;2022-12-29T06:27:36;9.20;99.90
23089;DHT22;11713;48.506;8.966;2022-12-29T06:30:04;9.20;99.90
23089;DHT22;11713;48.506;8.966;2022-12-29T06:32:31;9.20;99.90
23089;DHT22;11713;48.506;8.966;2022-12-29T06:35:05;9.20;99.90
23089;DHT22;11713;48.506;8.966;2022-12-29T06:37:36;9.20;99.90
23089;DHT22;11713;48.506;8.966;2022-12-29T06:40:03;9.20;99.90
23089;DHT22;11713;48.506;8.966;2022-12-29T06:42:41;9.20;99.90
23089;DHT22;11713;48.506;8.966;2022-12-29T06:45:30;9.20;99.90
23089;DHT22;11713;48.506;8.966;2022-12-29T06:47:55;9.30;99.90
23089;DHT22;11713;48.506;8.966;2022-12-29T06:50:21;9.40;99.90
23089;DHT22;11713;48.506;8.966;2022-12-29T06:52:47;9.50;99.90
23089;DHT22;11713;48.506;8.966;2022-12-29T06:55:13;9.50;99.90
23089;DHT22;11713;48.506;8.966;2022-12-29T06:57:39;9.60;99.90
23089;DHT22;11713;48.506;8.966;2022-12-29T07:00:05;9.70;99.90
23089;DHT22;11713;48.506;8.966;2022-12-29T07:02:31;9.70;99.90
23089;DHT22;11713;48.506;8.966;2022-12-29T07:04:57;9.80;99.90
23089;DHT22;11713;48.506;8.966;2022-12-29T07:07:23;9.80;99.90
23089;DHT22;11713;48.506;8.966;2022-12-29T07:09:48;9.80;99.90
23089;DHT22;11713;48.506;8.966;2022-12-29T07:12:14;9.70;99.90
23089;DHT22;11713;48.506;8.966;2022-12-29T07:14:40;9.70;99.90
23089;DHT22;11713;48.506;8.966;2022-12-29T07:17:06;9.70;99.90
23089;DHT22;11713;48.506;8.966;2022-12-29T07:19:32;9.60;99.90
23089;DHT22;11713;48.506;8.966;2022-12-29T07:21:58;9.60;99.90
23089;DHT22;11713;48.506;8.966;2022-12-29T07:24:24;9.50;99.90
23089;DHT22;11713;48.506;8.966;2022-12-29T07:26:53;9.50;99.90
23089;DHT22;11713;48.506;8.966;2022-12-29T07:29:20;9.50;99.90
23089;DHT22;11713;48.506;8.966;2022-12-29T07:31:46;9.40;99.90
23089;DHT22;11713;48.506;8.966;2022-12-29T07:34:15;9.40;99.90
23089;DHT22;11713;48.506;8.966;2022-12-29T07:36:41;9.40;99.90
23089;DHT22;11713;48.506;8.966;2022-12-29T07:39:07;9.40;99.90
23089;DHT22;11713;48.506;8.966;2022-12-29T07:41:33;9.40;99.90
23089;DHT22;11713;48.506;8.966;2022-12-29T07:44:01;9.40;99.90
23089;DHT22;11713;48.506;8.966;2022-12-29T07:46:35;9.50;99.90
23089;DHT22;11713;48.506;8.966;2022-12-29T07:49:01;9.60;99.90
23089;DHT22;11713;48.506;8.966;2022-12-29T07:51:26;9.70;99.90
23089;DHT22;11713;48.506;8.966;2022-12-29T07:53:52;9.70;99.90
23089;DHT22;11713;48.506;8.966;2022-12-29T07:56:18;9.90;99.90
23089;DHT22;11713;48.506;8.966;2022-12-29T07:58:44;10.00;99.90
23089;DHT22;11713;48.506;8.966;2022-12-29T08:01:10;10.00;99.90
23089;DHT22;11713;48.506;8.966;2022-12-29T08:03:35;10.00;99.90
23089;DHT22;11713;48.506;8.966;2022-12-29T08:06:02;10.10;99.90
23089;DHT22;11713;48.506;8.966;2022-12-29T08:08:28;10.10;99.90
23089;DHT22;11713;48.506;8.966;2022-12-29T08:10:54;10.20;99.90
23089;DHT22;11713;48.506;8.966;2022-12-29T08:13:20;10.20;99.90
23089;DHT22;11713;48.506;8.966;2022-12-29T08:15:46;10.20;99.90
23089;DHT22;11713;48.506;8.966;2022-12-29T08:18:12;10.20;99.90
23089;DHT22;11713;48.506;8.966;2022-12-29T08:20:38;10.30;99.90
23089;DHT22;11713;48.506;8.966;2022-12-29T08:23:04;10.30;99.90
23089;DHT22;11713;48.506;8.966;2022-12-29T08:25:31;10.30;99.90
23089;DHT22;11713;48.506;8.966;2022-12-29T08:27:57;10.30;99.90
23089;DHT22;11713;48.506;8.966;2022-12-29T08:30:23;10.30;99.90
23089;DHT22;11713;48.506;8.966;2022-12-29T08:32:49;10.30;99.90
23089;DHT22;11713;48.506;8.966;2022-12-29T08:35:14;10.40;99.90
23089;DHT22;11713;48.506;8.966;2022-12-29T08:37:40;10.40;99.90
23089;DHT22;11713;48.506;8.966;2022-12-29T08:40:07;10.40;99.90
23089;DHT22;11713;48.506;8.966;2022-12-29T08:42:33;10.40;99.90
23089;DHT22;11713;48.506;8.966;2022-12-29T08:44:59;10.40;99.90
23089;DHT22;11713;48.506;8.966;2022-12-29T08:47:25;10.50;99.90
23089;DHT22;11713;48.506;8.966;2022-12-29T08:49:51;10.50;99.90
23089;DHT22;11713;48.506;8.966;2022-12-29T08:52:17;10.50;99.90
23089;DHT22;11713;48.506;8.966;2022-12-29T08:54:43;10.40;99.90
23089;DHT22;11713;48.506;8.966;2022-12-29T08:57:10;10.50;99.90
23089;DHT22;11713;48.506;8.966;2022-12-29T08:59:45;10.50;99.90
23089;DHT22;11713;48.506;8.966;2022-12-29T09:02:12;10.50;99.90
23089;DHT22;11713;48.506;8.966;2022-12-29T09:04:38;10.60;99.90
23089;DHT22;11713;48.506;8.966;2022-12-29T09:07:04;10.60;99.90
23089;DHT22;11713;48.506;8.966;2022-12-29T09:09:31;10.60;99.90
23089;DHT22;11713;48.506;8.966;2022-12-29T09:11:57;10.60;99.90
23089;DHT22;11713;48.506;8.966;2022-12-29T09:14:23;10.50;99.90
23089;DHT22;11713;48.506;8.966;2022-12-29T09:16:53;10.60;99.90
23089;DHT22;11713;48.506;8.966;2022-12-29T09:19:38;10.70;99.90
23089;DHT22;11713;48.506;8.966;2022-12-29T09:22:04;10.70;99.90
23089;DHT22;11713;48.506;8.966;2022-12-29T09:24:30;10.80;99.90
23089;DHT22;11713;48.506;8.966;2022-12-29T09:26:56;11.00;99.90
23089;DHT22;11713;48.506;8.966;2022-12-29T09:29:22;11.00;99.90
23089;DHT22;11713;48.506;8.966;2022-12-29T09:31:48;11.00;99.90
23089;DHT22;11713;48.506;8.966;2022-12-29T09:34:13;11.10;99.90
23089;DHT22;11713;48.506;8.966;2022-12-29T09:36:39;11.10;99.90
23089;DHT22;11713;48.506;8.966;2022-12-29T09:39:06;11.10;99.90
23089;DHT22;11713;48.506;8.966;2022-12-29T09:46:55;11.20;99.90
23089;DHT22;11713;48.506;8.966;2022-12-29T09:49:44;11.20;99.90
23089;DHT22;11713;48.506;8.966;2022-12-29T09:52:42;11.10;99.90
23089;DHT22;11713;48.506;8.966;2022-12-29T09:55:15;11.20;99.90
23089;DHT22;11713;48.506;8.966;2022-12-29T09:58:00;11.10;99.90
23089;DHT22;11713;48.506;8.966;2022-12-29T10:03:26;11.10;99.90
23089;DHT22;11713;48.506;8.966;2022-12-29T10:07:00;11.10;99.90
23089;DHT22;11713;48.506;8.966;2022-12-29T10:09:15;11.10;99.90
23089;DHT22;11713;48.506;8.966;2022-12-29T10:12:25;11.10;99.90
23089;DHT22;11713;48.506;8.966;2022-12-29T10:15:02;11.00;99.90
23089;DHT22;11713;48.506;8.966;2022-12-29T10:17:52;11.00;99.90
23089;DHT22;11713;48.506;8.966;2022-12-29T10:20:36;11.10;99.90
23089;DHT22;11713;48.506;8.966;2022-12-29T10:25:47;11.10;99.90
23089;DHT22;11713;48.506;8.966;2022-12-29T10:31:03;11.00;99.90
23089;DHT22;11713;48.506;8.966;2022-12-29T10:33:37;11.00;99.90
23089;DHT22;11713;48.506;8.966;2022-12-29T10:36:16;11.00;99.90
23089;DHT22;11713;48.506;8.966;2022-12-29T10:39:06;11.10;99.90
23089;DHT22;11713;48.506;8.966;2022-12-29T10:41:53;11.10;99.90
23089;DHT22;11713;48.506;8.966;2022-12-29T10:44:22;11.20;99.90
23089;DHT22;11713;48.506;8.966;2022-12-29T10:46:57;11.20;99.90
23089;DHT22;11713;48.506;8.966;2022-12-29T10:49:28;11.20;99.90
23089;DHT22;11713;48.506;8.966;2022-12-29T10:51:58;11.20;99.90
23089;DHT22;11713;48.506;8.966;2022-12-29T10:57:24;11.20;99.90
23089;DHT22;11713;48.506;8.966;2022-12-29T11:00:13;11.20;99.90
23089;DHT22;11713;48.506;8.966;2022-12-29T11:08:25;11.30;99.90
23089;DHT22;11713;48.506;8.966;2022-12-29T11:11:05;11.30;99.90
23089;DHT22;11713;48.506;8.966;2022-12-29T11:13:33;11.30;99.90
23089;DHT22;11713;48.506;8.966;2022-12-29T11:15:59;11.30;99.90
23089;DHT22;11713;48.506;8.966;2022-12-29T11:18:27;11.30;99.90
23089;DHT22;11713;48.506;8.966;2022-12-29T11:20:58;11.30;99.90
23089;DHT22;11713;48.506;8.966;2022-12-29T11:28:43;11.20;99.90
23089;DHT22;11713;48.506;8.966;2022-12-29T11:31:10;11.10;99.90
23089;DHT22;11713;48.506;8.966;2022-12-29T11:33:37;11.00;99.90
23089;DHT22;11713;48.506;8.966;2022-12-29T11:36:11;10.90;99.90
23089;DHT22;11713;48.506;8.966;2022-12-29T11:38:46;10.90;99.90
23089;DHT22;11713;48.506;8.966;2022-12-29T11:41:24;10.90;99.90
23089;DHT22;11713;48.506;8.966;2022-12-29T11:43:51;11.00;99.90
23089;DHT22;11713;48.506;8.966;2022-12-29T11:46:25;11.10;99.90
23089;DHT22;11713;48.506;8.966;2022-12-29T11:48:52;11.00;99.90
23089;DHT22;11713;48.506;8.966;2022-12-29T11:51:23;11.10;99.90
23089;DHT22;11713;48.506;8.966;2022-12-29T11:53:56;11.10;99.90
23089;DHT22;11713;48.506;8.966;2022-12-29T11:56:40;11.00;99.90
23089;DHT22;11713;48.506;8.966;2022-12-29T11:59:38;11.00;99.90
23089;DHT22;11713;48.506;8.966;2022-12-29T12:02:45;11.00;99.90
23089;DHT22;11713;48.506;8.966;2022-12-29T12:05:41;10.90;99.90
23089;DHT22;11713;48.506;8.966;2022-12-29T12:08:14;10.90;99.90
23089;DHT22;11713;48.506;8.966;2022-12-29T12:10:46;10.90;99.90
23089;DHT22;11713;48.506;8.966;2022-12-29T12:13:25;10.90;99.90
23089;DHT22;11713;48.506;8.966;2022-12-29T12:15:59;10.90;99.90
23089;DHT22;11713;48.506;8.966;2022-12-29T12:18:55;10.90;99.90
23089;DHT22;11713;48.506;8.966;2022-12-29T12:21:32;10.90;99.90
23089;DHT22;11713;48.506;8.966;2022-12-29T12:24:21;10.80;99.90
23089;DHT22;11713;48.506;8.966;2022-12-29T12:29:39;10.70;99.90
23089;DHT22;11713;48.506;8.966;2022-12-29T12:34:42;10.70;99.90
23089;DHT22;11713;48.506;8.966;2022-12-29T12:37:13;10.70;99.90
23089;DHT22;11713;48.506;8.966;2022-12-29T12:40:24;10.70;99.90
23089;DHT22;11713;48.506;8.966;2022-12-29T12:54:32;10.70;99.90
23089;DHT22;11713;48.506;8.966;2022-12-29T13:00:13;10.80;99.90
23089;DHT22;11713;48.506;8.966;2022-12-29T13:16:34;10.80;99.90
23089;DHT22;11713;48.506;8.966;2022-12-29T13:25:33;10.90;99.90
23089;DHT22;11713;48.506;8.966;2022-12-29T13:33:27;10.90;99.90
23089;DHT22;11713;48.506;8.966;2022-12-29T13:36:02;10.90;99.90
23089;DHT22;11713;48.506;8.966;2022-12-29T13:38:34;11.00;99.90
23089;DHT22;11713;48.506;8.966;2022-12-29T13:41:06;11.00;99.90
23089;DHT22;11713;48.506;8.966;2022-12-29T13:43:35;11.10;99.90
23089;DHT22;11713;48.506;8.966;2022-12-29T13:46:09;11.10;99.90
23089;DHT22;11713;48.506;8.966;2022-12-29T13:49:17;11.10;99.90
23089;DHT22;11713;48.506;8.966;2022-12-29T13:52:03;11.20;99.90
23089;DHT22;11713;48.506;8.966;2022-12-29T13:57:13;11.30;99.90
23089;DHT22;11713;48.506;8.966;2022-12-29T14:00:00;11.30;99.90
23089;DHT22;11713;48.506;8.966;2022-12-29T14:08:34;11.40;99.90
23089;DHT22;11713;48.506;8.966;2022-12-29T14:11:09;11.40;99.90
23089;DHT22;11713;48.506;8.966;2022-12-29T14:13:41;11.40;99.90
23089;DHT22;11713;48.506;8.966;2022-12-29T14:16:11;11.40;99.90
23089;DHT22;11713;48.506;8.966;2022-12-29T14:18:46;11.40;99.90
23089;DHT22;11713;48.506;8.966;2022-12-29T14:23:45;11.40;99.90
23089;DHT22;11713;48.506;8.966;2022-12-29T14:28:57;11.30;99.90
23089;DHT22;11713;48.506;8.966;2022-12-29T14:31:41;11.30;99.90
23089;DHT22;11713;48.506;8.966;2022-12-29T14:36:39;11.50;99.90
23089;DHT22;11713;48.506;8.966;2022-12-29T14:39:41;11.50;99.90
23089;DHT22;11713;48.506;8.966;2022-12-29T14:44:47;11.40;99.90
23089;DHT22;11713;48.506;8.966;2022-12-29T14:49:55;11.40;99.90
23089;DHT22;11713;48.506;8.966;2022-12-29T14:52:27;11.30;99.90
23089;DHT22;11713;48.506;8.966;2022-12-29T14:57:33;11.30;99.90
23089;DHT22;11713;48.506;8.966;2022-12-29T15:00:27;11.20;99.90
23089;DHT22;11713;48.506;8.966;2022-12-29T15:05:50;11.20;99.90
23089;DHT22;11713;48.506;8.966;2022-12-29T15:08:23;11.20;99.90
23089;DHT22;11713;48.506;8.966;2022-12-29T15:10:53;11.20;99.90
23089;DHT22;11713;48.506;8.966;2022-12-29T15:13:36;11.20;99.90
23089;DHT22;11713;48.506;8.966;2022-12-29T15:16:03;11.20;99.90
23089;DHT22;11713;48.506;8.966;2022-12-29T15:18:33;11.10;99.90
23089;DHT22;11713;48.506;8.966;2022-12-29T15:21:04;11.10;99.90
23089;DHT22;11713;48.506;8.966;2022-12-29T15:23:34;11.10;99.90
23089;DHT22;11713;48.506;8.966;2022-12-29T15:26:06;11.00;99.90
23089;DHT22;11713;48.506;8.966;2022-12-29T15:28:44;11.00;99.90
23089;DHT22;11713;48.506;8.966;2022-12-29T15:31:17;11.00;99.90
23089;DHT22;11713;48.506;8.966;2022-12-29T15:33:49;10.90;99.90
23089;DHT22;11713;48.506;8.966;2022-12-29T15:36:21;10.90;99.90
23089;DHT22;11713;48.506;8.966;2022-12-29T15:38:48;10.90;99.90
23089;DHT22;11713;48.506;8.966;2022-12-29T15:44:15;10.90;99.90
23089;DHT22;11713;48.506;8.966;2022-12-29T15:46:42;10.90;99.90
23089;DHT22;11713;48.506;8.966;2022-12-29T15:49:11;10.90;99.90
23089;DHT22;11713;48.506;8.966;2022-12-29T15:51:40;10.90;99.90
23089;DHT22;11713;48.506;8.966;2022-12-29T15:54:19;10.90;99.90
23089;DHT22;11713;48.506;8.966;2022-12-29T15:56:46;10.80;99.90
23089;DHT22;11713;48.506;8.966;2022-12-29T15:59:23;10.80;99.90
23089;DHT22;11713;48.506;8.966;2022-12-29T16:01:49;10.80;99.90
23089;DHT22;11713;48.506;8.966;2022-12-29T16:04:16;10.70;99.90
23089;DHT22;11713;48.506;8.966;2022-12-29T16:09:49;10.60;99.90
23089;DHT22;11713;48.506;8.966;2022-12-29T16:12:23;10.60;99.90
23089;DHT22;11713;48.506;8.966;2022-12-29T16:15:00;10.50;99.90
23089;DHT22;11713;48.506;8.966;2022-12-29T16:17:31;10.50;99.90
23089;DHT22;11713;48.506;8.966;2022-12-29T16:20:01;10.50;99.90
23089;DHT22;11713;48.506;8.966;2022-12-29T16:22:34;10.40;99.90
23089;DHT22;11713;48.506;8.966;2022-12-29T16:25:19;10.40;99.90
23089;DHT22;11713;48.506;8.966;2022-12-29T16:27:47;10.30;99.90
23089;DHT22;11713;48.506;8.966;2022-12-29T16:32:50;10.20;99.90
23089;DHT22;11713;48.506;8.966;2022-12-29T16:37:43;10.20;99.90
23089;DHT22;11713;48.506;8.966;2022-12-29T16:40:48;10.10;99.90
23089;DHT22;11713;48.506;8.966;2022-12-29T16:43:26;10.10;99.90
23089;DHT22;11713;48.506;8.966;2022-12-29T16:48:21;10.00;99.90
23089;DHT22;11713;48.506;8.966;2022-12-29T16:50:48;10.00;99.90
23089;DHT22;11713;48.506;8.966;2022-12-29T16:53:40;9.90;99.90
23089;DHT22;11713;48.506;8.966;2022-12-29T16:56:19;9.90;99.90
23089;DHT22;11713;48.506;8.966;2022-12-29T16:58:50;9.80;99.90
23089;DHT22;11713;48.506;8.966;2022-12-29T17:01:20;9.80;99.90
23089;DHT22;11713;48.506;8.966;2022-12-29T17:03:59;9.70;99.90
23089;DHT22;11713;48.506;8.966;2022-12-29T17:06:26;9.70;99.90
23089;DHT22;11713;48.506;8.966;2022-12-29T17:08:52;9.70;99.90
23089;DHT22;11713;48.506;8.966;2022-12-29T17:11:30;9.60;99.90
23089;DHT22;11713;48.506;8.966;2022-12-29T17:15:04;9.70;99.90
23089;DHT22;11713;48.506;8.966;2022-12-29T17:19:52;9.60;99.90
23089;DHT22;11713;48.506;8.966;2022-12-29T17:22:25;9.60;99.90
23089;DHT22;11713;48.506;8.966;2022-12-29T17:24:52;9.50;99.90
23089;DHT22;11713;48.506;8.966;2022-12-29T17:27:29;9.50;99.90
23089;DHT22;11713;48.506;8.966;2022-12-29T17:29:58;9.40;99.90
23089;DHT22;11713;48.506;8.966;2022-12-29T17:32:25;9.40;99.90
23089;DHT22;11713;48.506;8.966;2022-12-29T17:34:53;9.20;99.90
23089;DHT22;11713;48.506;8.966;2022-12-29T17:37:36;9.10;99.90
23089;DHT22;11713;48.506;8.966;2022-12-29T17:40:05;9.00;99.90
23089;DHT22;11713;48.506;8.966;2022-12-29T17:42:32;9.00;99.90
23089;DHT22;11713;48.506;8.966;2022-12-29T17:45:01;8.90;99.90
23089;DHT22;11713;48.506;8.966;2022-12-29T17:47:27;8.90;99.90
23089;DHT22;11713;48.506;8.966;2022-12-29T17:49:53;8.90;99.90
23089;DHT22;11713;48.506;8.966;2022-12-29T17:52:20;8.90;99.90
23089;DHT22;11713;48.506;8.966;2022-12-29T17:54:49;8.80;99.90
23089;DHT22;11713;48.506;8.966;2022-12-29T17:57:16;8.80;99.90
23089;DHT22;11713;48.506;8.966;2022-12-29T17:59:42;8.70;99.90
23089;DHT22;11713;48.506;8.966;2022-12-29T18:02:25;8.60;99.90
23089;DHT22;11713;48.506;8.966;2022-12-29T18:04:51;8.60;99.90
23089;DHT22;11713;48.506;8.966;2022-12-29T18:07:17;8.60;99.90
23089;DHT22;11713;48.506;8.966;2022-12-29T18:09:43;8.60;99.90
23089;DHT22;11713;48.506;8.966;2022-12-29T18:12:27;8.60;99.90
23089;DHT22;11713;48.506;8.966;2022-12-29T18:14:53;8.60;99.90
23089;DHT22;11713;48.506;8.966;2022-12-29T18:17:19;8.60;99.90
23089;DHT22;11713;48.506;8.966;2022-12-29T18:19:45;8.60;99.90
23089;DHT22;11713;48.506;8.966;2022-12-29T18:22:11;8.60;99.90
23089;DHT22;11713;48.506;8.966;2022-12-29T18:24:37;8.60;99.90
23089;DHT22;11713;48.506;8.966;2022-12-29T18:27:13;8.60;99.90
23089;DHT22;11713;48.506;8.966;2022-12-29T18:29:40;8.60;99.90
23089;DHT22;11713;48.506;8.966;2022-12-29T18:32:11;8.60;99.90
23089;DHT22;11713;48.506;8.966;2022-12-29T18:34:39;8.60;99.90
23089;DHT22;11713;48.506;8.966;2022-12-29T18:37:04;8.60;99.90
23089;DHT22;11713;48.506;8.966;2022-12-29T18:39:30;8.60;99.90